sensor_id;sensor_type;location;lat;lon;timestamp;pressure;altitude;pressure_sealevel;temperature;humidity
69630;BME280;56857;52.212;5.496;2022-07-06T00:00:07;102596.69;;;14.06;70.72
69630;BME280;56857;52.212;5.496;2022-07-06T00:02:32;102597.81;;;14.04;70.63
69630;BME280;56857;52.212;5.496;2022-07-06T00:04:58;102604.97;;;14.03;70.66
69630;BME280;56857;52.212;5.496;2022-07-06T00:07:23;102601.78;;;14.00;70.19
69630;BME280;56857;52.212;5.496;2022-07-06T00:09:49;102602.75;;;13.99;70.53
69630;BME280;56857;52.212;5.496;2022-07-06T00:12:14;102598.41;;;13.98;70.43
69630;BME280;56857;52.212;5.496;2022-07-06T00:14:40;102595.56;;;13.99;70.82
69630;BME280;56857;52.212;5.496;2022-07-06T00:17:05;102602.19;;;13.95;70.72
69630;BME280;56857;52.212;5.496;2022-07-06T00:19:30;102599.53;;;13.95;70.76
69630;BME280;56857;52.212;5.496;2022-07-06T00:21:55;102601.50;;;13.93;70.54
69630;BME280;56857;52.212;5.496;2022-07-06T00:24:21;102592.81;;;13.91;70.82
69630;BME280;56857;52.212;5.496;2022-07-06T00:26:46;102602.66;;;13.90;70.88
69630;BME280;56857;52.212;5.496;2022-07-06T00:29:11;102597.63;;;13.87;70.65
69630;BME280;56857;52.212;5.496;2022-07-06T00:31:37;102590.59;;;13.86;70.84
69630;BME280;56857;52.212;5.496;2022-07-06T00:34:02;102588.09;;;13.85;70.83
69630;BME280;56857;52.212;5.496;2022-07-06T00:36:27;102582.88;;;13.83;70.62
69630;BME280;56857;52.212;5.496;2022-07-06T00:38:53;102590.22;;;13.81;71.07
69630;BME280;56857;52.212;5.496;2022-07-06T00:41:18;102586.00;;;13.79;70.91
69630;BME280;56857;52.212;5.496;2022-07-06T00:46:13;102593.59;;;13.74;71.82
69630;BME280;56857;52.212;5.496;2022-07-06T00:48:38;102586.72;;;13.71;72.19
69630;BME280;56857;52.212;5.496;2022-07-06T00:51:03;102583.22;;;13.71;72.01
69630;BME280;56857;52.212;5.496;2022-07-06T00:53:29;102590.69;;;13.67;71.50
69630;BME280;56857;52.212;5.496;2022-07-06T00:55:54;102589.31;;;13.63;72.35
69630;BME280;56857;52.212;5.496;2022-07-06T00:58:19;102596.47;;;13.62;72.13
69630;BME280;56857;52.212;5.496;2022-07-06T01:00:45;102595.78;;;13.60;72.38
69630;BME280;56857;52.212;5.496;2022-07-06T01:03:10;102593.25;;;13.59;72.60
69630;BME280;56857;52.212;5.496;2022-07-06T01:05:35;102600.41;;;13.58;72.61
69630;BME280;56857;52.212;5.496;2022-07-06T01:08:01;102597.88;;;13.57;73.01
69630;BME280;56857;52.212;5.496;2022-07-06T01:10:26;102605.19;;;13.55;72.94
69630;BME280;56857;52.212;5.496;2022-07-06T01:12:52;102604.34;;;13.54;73.08
69630;BME280;56857;52.212;5.496;2022-07-06T01:15:22;102603.63;;;13.52;72.85
69630;BME280;56857;52.212;5.496;2022-07-06T01:17:48;102600.13;;;13.52;73.18
69630;BME280;56857;52.212;5.496;2022-07-06T01:20:18;102603.94;;;13.49;73.42
69630;BME280;56857;52.212;5.496;2022-07-06T01:22:48;102601.25;;;13.49;73.69
69630;BME280;56857;52.212;5.496;2022-07-06T01:25:15;102600.44;;;13.49;73.48
69630;BME280;56857;52.212;5.496;2022-07-06T01:27:42;102602.13;;;13.50;73.96
69630;BME280;56857;52.212;5.496;2022-07-06T01:30:12;102601.25;;;13.49;73.96
69630;BME280;56857;52.212;5.496;2022-07-06T01:32:38;102603.09;;;13.49;74.42
69630;BME280;56857;52.212;5.496;2022-07-06T01:35:09;102585.44;;;13.48;73.97
69630;BME280;56857;52.212;5.496;2022-07-06T01:37:35;102592.59;;;13.47;73.80
69630;BME280;56857;52.212;5.496;2022-07-06T01:40:01;102585.72;;;13.44;74.56
69630;BME280;56857;52.212;5.496;2022-07-06T01:42:27;102575.91;;;13.45;74.46
69630;BME280;56857;52.212;5.496;2022-07-06T01:44:53;102572.56;;;13.43;74.29
69630;BME280;56857;52.212;5.496;2022-07-06T01:47:18;102576.06;;;13.43;74.44
69630;BME280;56857;52.212;5.496;2022-07-06T01:49:44;102578.56;;;13.45;74.44
69630;BME280;56857;52.212;5.496;2022-07-06T01:52:09;102576.06;;;13.43;74.22
69630;BME280;56857;52.212;5.496;2022-07-06T01:54:34;102578.72;;;13.43;73.90
69630;BME280;56857;52.212;5.496;2022-07-06T01:57:00;102581.53;;;13.42;74.43
69630;BME280;56857;52.212;5.496;2022-07-06T01:59:25;102584.34;;;13.40;74.32
69630;BME280;56857;52.212;5.496;2022-07-06T02:01:51;102576.34;;;13.40;74.42
69630;BME280;56857;52.212;5.496;2022-07-06T02:04:16;102584.47;;;13.39;73.95
69630;BME280;56857;52.212;5.496;2022-07-06T02:06:41;102575.81;;;13.37;74.08
69630;BME280;56857;52.212;5.496;2022-07-06T02:09:06;102581.28;;;13.35;73.89
69630;BME280;56857;52.212;5.496;2022-07-06T02:11:32;102577.91;;;13.33;74.20
69630;BME280;56857;52.212;5.496;2022-07-06T02:13:57;102585.88;;;13.33;73.92
69630;BME280;56857;52.212;5.496;2022-07-06T02:16:22;102575.25;;;13.33;73.86
69630;BME280;56857;52.212;5.496;2022-07-06T02:18:48;102582.41;;;13.33;73.76
69630;BME280;56857;52.212;5.496;2022-07-06T02:21:13;102575.41;;;13.32;73.78
69630;BME280;56857;52.212;5.496;2022-07-06T02:23:38;102581.72;;;13.31;73.83
69630;BME280;56857;52.212;5.496;2022-07-06T02:26:04;102577.22;;;13.31;73.61
69630;BME280;56857;52.212;5.496;2022-07-06T02:28:30;102578.91;;;13.32;73.70
69630;BME280;56857;52.212;5.496;2022-07-06T02:30:58;102577.22;;;13.31;73.57
69630;BME280;56857;52.212;5.496;2022-07-06T02:33:23;102572.88;;;13.30;73.50
69630;BME280;56857;52.212;5.496;2022-07-06T02:35:49;102574.84;;;13.28;73.73
69630;BME280;56857;52.212;5.496;2022-07-06T02:38:14;102583.81;;;13.27;73.84
69630;BME280;56857;52.212;5.496;2022-07-06T02:40:40;102584.81;;;13.26;73.89
69630;BME280;56857;52.212;5.496;2022-07-06T02:43:05;102583.81;;;13.27;73.98
69630;BME280;56857;52.212;5.496;2022-07-06T02:45:31;102584.66;;;13.28;74.22
69630;BME280;56857;52.212;5.496;2022-07-06T02:47:57;102592.66;;;13.28;74.02
69630;BME280;56857;52.212;5.496;2022-07-06T02:50:23;102589.84;;;13.29;74.23
69630;BME280;56857;52.212;5.496;2022-07-06T02:52:48;102600.38;;;13.31;74.42
69630;BME280;56857;52.212;5.496;2022-07-06T02:55:14;102598.53;;;13.31;74.22
69630;BME280;56857;52.212;5.496;2022-07-06T02:57:39;102600.06;;;13.34;74.25
69630;BME280;56857;52.212;5.496;2022-07-06T03:00:07;102594.59;;;13.35;74.57
69630;BME280;56857;52.212;5.496;2022-07-06T03:02:32;102594.59;;;13.35;74.59
69630;BME280;56857;52.212;5.496;2022-07-06T03:04:58;102581.44;;;13.34;74.82
69630;BME280;56857;52.212;5.496;2022-07-06T03:07:23;102599.91;;;13.35;74.44
69630;BME280;56857;52.212;5.496;2022-07-06T03:09:49;102587.59;;;13.34;74.81
69630;BME280;56857;52.212;5.496;2022-07-06T03:12:14;102589.25;;;13.35;75.00
69630;BME280;56857;52.212;5.496;2022-07-06T03:14:39;102597.25;;;13.35;74.89
69630;BME280;56857;52.212;5.496;2022-07-06T03:17:05;102594.75;;;13.34;75.03
69630;BME280;56857;52.212;5.496;2022-07-06T03:19:30;102593.88;;;13.33;75.05
69630;BME280;56857;52.212;5.496;2022-07-06T03:21:55;102593.03;;;13.33;74.85
69630;BME280;56857;52.212;5.496;2022-07-06T03:24:21;102595.72;;;13.33;75.78
69630;BME280;56857;52.212;5.496;2022-07-06T03:26:46;102599.22;;;13.33;75.97
69630;BME280;56857;52.212;5.496;2022-07-06T03:29:11;102599.22;;;13.33;75.44
69630;BME280;56857;52.212;5.496;2022-07-06T03:31:36;102603.56;;;13.34;75.27
69630;BME280;56857;52.212;5.496;2022-07-06T03:34:02;102595.59;;;13.34;75.59
69630;BME280;56857;52.212;5.496;2022-07-06T03:36:27;102602.44;;;13.37;75.85
69630;BME280;56857;52.212;5.496;2022-07-06T03:38:53;102606.78;;;13.38;75.67
69630;BME280;56857;52.212;5.496;2022-07-06T03:41:18;102606.78;;;13.38;75.47
69630;BME280;56857;52.212;5.496;2022-07-06T03:43:43;102594.16;;;13.40;75.53
69630;BME280;56857;52.212;5.496;2022-07-06T03:46:09;102594.84;;;13.42;75.53
69630;BME280;56857;52.212;5.496;2022-07-06T03:48:34;102591.34;;;13.41;75.26
69630;BME280;56857;52.212;5.496;2022-07-06T03:51:00;102592.06;;;13.43;75.54
69630;BME280;56857;52.212;5.496;2022-07-06T03:53:25;102586.72;;;13.43;75.03
69630;BME280;56857;52.212;5.496;2022-07-06T03:55:51;102597.94;;;13.47;75.46
69630;BME280;56857;52.212;5.496;2022-07-06T03:58:16;102598.59;;;13.49;75.48
69630;BME280;56857;52.212;5.496;2022-07-06T04:00:41;102602.81;;;13.52;75.35
69630;BME280;56857;52.212;5.496;2022-07-06T04:03:07;102592.97;;;13.52;75.56
69630;BME280;56857;52.212;5.496;2022-07-06T04:05:32;102592.84;;;13.54;75.80
69630;BME280;56857;52.212;5.496;2022-07-06T04:07:57;102584.69;;;13.55;75.42
69630;BME280;56857;52.212;5.496;2022-07-06T04:10:23;102593.69;;;13.54;75.46
69630;BME280;56857;52.212;5.496;2022-07-06T04:12:48;102596.22;;;13.56;75.37
69630;BME280;56857;52.212;5.496;2022-07-06T04:15:13;102580.22;;;13.56;75.75
69630;BME280;56857;52.212;5.496;2022-07-06T04:17:39;102582.59;;;13.59;75.72
69630;BME280;56857;52.212;5.496;2022-07-06T04:20:04;102596.47;;;13.62;75.26
69630;BME280;56857;52.212;5.496;2022-07-06T04:22:30;102596.31;;;13.64;75.87
69630;BME280;56857;52.212;5.496;2022-07-06T04:24:56;102600.66;;;13.65;75.97
69630;BME280;56857;52.212;5.496;2022-07-06T04:27:21;102599.38;;;13.69;75.78
69630;BME280;56857;52.212;5.496;2022-07-06T04:29:47;102600.94;;;13.72;76.00
69630;BME280;56857;52.212;5.496;2022-07-06T04:32:12;102598.25;;;13.72;77.02
69630;BME280;56857;52.212;5.496;2022-07-06T04:34:37;102593.59;;;13.74;76.64
69630;BME280;56857;52.212;5.496;2022-07-06T04:37:03;102592.19;;;13.79;76.47
69630;BME280;56857;52.212;5.496;2022-07-06T04:39:28;102594.38;;;13.84;76.84
69630;BME280;56857;52.212;5.496;2022-07-06T04:41:53;102592.41;;;13.86;76.91
69630;BME280;56857;52.212;5.496;2022-07-06T04:44:19;102594.97;;;13.87;76.34
69630;BME280;56857;52.212;5.496;2022-07-06T04:46:44;102596.31;;;13.91;76.31
69630;BME280;56857;52.212;5.496;2022-07-06T04:49:09;102599.53;;;13.95;76.50
69630;BME280;56857;52.212;5.496;2022-07-06T04:51:35;102597.69;;;13.96;76.61
69630;BME280;56857;52.212;5.496;2022-07-06T04:54:00;102590.78;;;14.03;76.65
69630;BME280;56857;52.212;5.496;2022-07-06T04:56:25;102600.19;;;14.07;76.33
69630;BME280;56857;52.212;5.496;2022-07-06T04:58:51;102601.25;;;14.14;76.31
69630;BME280;56857;52.212;5.496;2022-07-06T05:01:16;102594.47;;;14.20;76.16
69630;BME280;56857;52.212;5.496;2022-07-06T05:03:41;102597.53;;;14.25;75.93
69630;BME280;56857;52.212;5.496;2022-07-06T05:06:07;102601.28;;;14.32;76.41
69630;BME280;56857;52.212;5.496;2022-07-06T05:08:33;102598.00;;;14.38;76.21
69630;BME280;56857;52.212;5.496;2022-07-06T05:10:58;102602.56;;;14.46;75.88
69630;BME280;56857;52.212;5.496;2022-07-06T05:13:24;102603.84;;;14.51;75.95
69630;BME280;56857;52.212;5.496;2022-07-06T05:15:49;102609.56;;;14.56;75.89
69630;BME280;56857;52.212;5.496;2022-07-06T05:18:15;102602.75;;;14.62;75.95
69630;BME280;56857;52.212;5.496;2022-07-06T05:20:40;102608.50;;;14.67;75.54
69630;BME280;56857;52.212;5.496;2022-07-06T05:23:05;102609.31;;;14.68;75.33
69630;BME280;56857;52.212;5.496;2022-07-06T05:25:31;102606.13;;;14.64;75.86
69630;BME280;56857;52.212;5.496;2022-07-06T05:27:57;102610.16;;;14.68;75.53
69630;BME280;56857;52.212;5.496;2022-07-06T05:30:22;102608.88;;;14.72;75.72
69630;BME280;56857;52.212;5.496;2022-07-06T05:32:47;102612.38;;;14.73;75.46
69630;BME280;56857;52.212;5.496;2022-07-06T05:35:13;102611.16;;;14.67;76.09
69630;BME280;56857;52.212;5.496;2022-07-06T05:37:38;102613.00;;;14.67;76.27
69630;BME280;56857;52.212;5.496;2022-07-06T05:40:04;102614.81;;;14.66;76.09
69630;BME280;56857;52.212;5.496;2022-07-06T05:42:29;102613.13;;;14.65;77.22
69630;BME280;56857;52.212;5.496;2022-07-06T05:44:55;102613.31;;;14.64;76.20
69630;BME280;56857;52.212;5.496;2022-07-06T05:47:22;102618.16;;;14.68;76.01
69630;BME280;56857;52.212;5.496;2022-07-06T05:49:47;102622.53;;;14.69;75.50
69630;BME280;56857;52.212;5.496;2022-07-06T05:52:12;102617.19;;;14.69;76.08
69630;BME280;56857;52.212;5.496;2022-07-06T05:54:37;102625.19;;;14.69;75.63
69630;BME280;56857;52.212;5.496;2022-07-06T05:57:03;102625.88;;;14.71;75.66
69630;BME280;56857;52.212;5.496;2022-07-06T05:59:30;102626.56;;;14.73;75.92
69630;BME280;56857;52.212;5.496;2022-07-06T06:01:55;102631.91;;;14.73;78.18
69630;BME280;56857;52.212;5.496;2022-07-06T06:04:20;102621.06;;;14.75;76.51
69630;BME280;56857;52.212;5.496;2022-07-06T06:06:46;102619.88;;;14.69;79.68
69630;BME280;56857;52.212;5.496;2022-07-06T06:09:11;102625.72;;;14.73;78.20
69630;BME280;56857;52.212;5.496;2022-07-06T06:11:36;102625.25;;;14.77;78.70
69630;BME280;56857;52.212;5.496;2022-07-06T06:14:01;102630.16;;;14.82;77.56
69630;BME280;56857;52.212;5.496;2022-07-06T06:16:27;102626.19;;;14.86;77.20
69630;BME280;56857;52.212;5.496;2022-07-06T06:18:52;102632.88;;;14.90;77.32
69630;BME280;56857;52.212;5.496;2022-07-06T06:21:18;102621.06;;;14.93;76.98
69630;BME280;56857;52.212;5.496;2022-07-06T06:23:43;102628.06;;;14.94;76.83
69630;BME280;56857;52.212;5.496;2022-07-06T06:26:09;102634.09;;;14.96;76.67
69630;BME280;56857;52.212;5.496;2022-07-06T06:28:34;102632.25;;;14.96;77.32
69630;BME280;56857;52.212;5.496;2022-07-06T06:31:00;102641.50;;;15.02;76.90
69630;BME280;56857;52.212;5.496;2022-07-06T06:33:25;102639.22;;;15.07;76.42
69630;BME280;56857;52.212;5.496;2022-07-06T06:35:51;102634.53;;;15.09;73.80
69630;BME280;56857;52.212;5.496;2022-07-06T06:38:18;102632.56;;;15.11;73.54
69630;BME280;56857;52.212;5.496;2022-07-06T06:40:44;102642.94;;;15.14;72.94
69630;BME280;56857;52.212;5.496;2022-07-06T06:43:10;102632.75;;;15.18;73.14
69630;BME280;56857;52.212;5.496;2022-07-06T06:45:35;102634.28;;;15.20;72.19
69630;BME280;56857;52.212;5.496;2022-07-06T06:48:01;102642.31;;;15.20;72.00
69630;BME280;56857;52.212;5.496;2022-07-06T06:50:26;102634.94;;;15.22;69.60
69630;BME280;56857;52.212;5.496;2022-07-06T06:52:52;102640.84;;;15.26;69.25
69630;BME280;56857;52.212;5.496;2022-07-06T06:55:17;102637.88;;;15.29;65.39
69630;BME280;56857;52.212;5.496;2022-07-06T06:57:43;102644.56;;;15.33;66.38
69630;BME280;56857;52.212;5.496;2022-07-06T07:00:09;102649.59;;;15.36;64.31
69630;BME280;56857;52.212;5.496;2022-07-06T07:02:34;102649.13;;;15.41;64.75
69630;BME280;56857;52.212;5.496;2022-07-06T07:05:00;102649.50;;;15.46;63.81
69630;BME280;56857;52.212;5.496;2022-07-06T07:07:25;102650.31;;;15.46;62.63
69630;BME280;56857;52.212;5.496;2022-07-06T07:09:51;102637.78;;;15.47;63.47
69630;BME280;56857;52.212;5.496;2022-07-06T07:12:16;102643.97;;;15.47;63.29
69630;BME280;56857;52.212;5.496;2022-07-06T07:14:41;102643.84;;;15.49;63.08
69630;BME280;56857;52.212;5.496;2022-07-06T07:17:07;102645.50;;;15.50;63.24
69630;BME280;56857;52.212;5.496;2022-07-06T07:19:32;102646.50;;;15.49;62.37
69630;BME280;56857;52.212;5.496;2022-07-06T07:21:58;102647.03;;;15.52;62.76
69630;BME280;56857;52.212;5.496;2022-07-06T07:24:23;102649.06;;;15.59;60.92
69630;BME280;56857;52.212;5.496;2022-07-06T07:26:48;102659.28;;;15.63;60.29
69630;BME280;56857;52.212;5.496;2022-07-06T07:29:14;102650.00;;;15.67;61.08
69630;BME280;56857;52.212;5.496;2022-07-06T07:31:39;102652.78;;;15.66;60.98
69630;BME280;56857;52.212;5.496;2022-07-06T07:34:04;102657.53;;;15.72;61.69
69630;BME280;56857;52.212;5.496;2022-07-06T07:36:30;102652.69;;;15.75;61.45
69630;BME280;56857;52.212;5.496;2022-07-06T07:38:55;102649.03;;;15.77;62.39
69630;BME280;56857;52.212;5.496;2022-07-06T07:41:20;102646.19;;;15.78;62.89
69630;BME280;56857;52.212;5.496;2022-07-06T07:43:46;102647.06;;;15.87;61.98
69630;BME280;56857;52.212;5.496;2022-07-06T07:46:11;102644.59;;;15.93;62.14
69630;BME280;56857;52.212;5.496;2022-07-06T07:48:36;102653.66;;;16.01;62.03
69630;BME280;56857;52.212;5.496;2022-07-06T07:51:02;102659.69;;;16.03;60.66
69630;BME280;56857;52.212;5.496;2022-07-06T07:53:27;102658.19;;;16.08;61.71
69630;BME280;56857;52.212;5.496;2022-07-06T07:55:52;102656.03;;;16.12;61.46
69630;BME280;56857;52.212;5.496;2022-07-06T07:58:18;102652.53;;;16.19;61.73
69630;BME280;56857;52.212;5.496;2022-07-06T08:00:43;102659.41;;;16.22;61.14
69630;BME280;56857;52.212;5.496;2022-07-06T08:03:09;102651.25;;;16.24;62.20
69630;BME280;56857;52.212;5.496;2022-07-06T08:05:34;102652.91;;;16.25;62.35
69630;BME280;56857;52.212;5.496;2022-07-06T08:08:00;102656.38;;;16.17;59.19
69630;BME280;56857;52.212;5.496;2022-07-06T08:10:25;102654.72;;;16.16;59.57
69630;BME280;56857;52.212;5.496;2022-07-06T08:12:50;102658.41;;;16.23;60.53
69630;BME280;56857;52.212;5.496;2022-07-06T08:15:16;102659.28;;;16.32;61.17
69630;BME280;56857;52.212;5.496;2022-07-06T08:17:41;102649.44;;;16.40;60.19
69630;BME280;56857;52.212;5.496;2022-07-06T08:20:07;102648.78;;;16.55;59.19
69630;BME280;56857;52.212;5.496;2022-07-06T08:22:35;102649.47;;;16.73;59.86
69630;BME280;56857;52.212;5.496;2022-07-06T08:25:00;102650.88;;;16.77;57.60
69630;BME280;56857;52.212;5.496;2022-07-06T08:27:26;102651.72;;;16.78;57.99
69630;BME280;56857;52.212;5.496;2022-07-06T08:29:51;102647.19;;;16.78;57.83
69630;BME280;56857;52.212;5.496;2022-07-06T08:32:16;102643.50;;;16.79;58.03
69630;BME280;56857;52.212;5.496;2022-07-06T08:34:42;102647.84;;;16.88;56.74
69630;BME280;56857;52.212;5.496;2022-07-06T08:37:07;102635.31;;;16.97;57.37
69630;BME280;56857;52.212;5.496;2022-07-06T08:39:32;102643.84;;;17.09;57.88
69630;BME280;56857;52.212;5.496;2022-07-06T08:41:58;102650.88;;;17.18;57.03
69630;BME280;56857;52.212;5.496;2022-07-06T08:44:25;102645.81;;;17.23;56.85
69630;BME280;56857;52.212;5.496;2022-07-06T08:46:52;102641.44;;;17.30;55.06
69630;BME280;56857;52.212;5.496;2022-07-06T08:49:19;102650.34;;;17.31;54.35
69630;BME280;56857;52.212;5.496;2022-07-06T08:51:45;102642.81;;;17.34;55.30
69630;BME280;56857;52.212;5.496;2022-07-06T08:54:11;102635.75;;;17.33;54.78
69630;BME280;56857;52.212;5.496;2022-07-06T08:56:38;102634.28;;;17.23;53.27
69630;BME280;56857;52.212;5.496;2022-07-06T08:59:03;102643.97;;;17.24;55.05
69630;BME280;56857;52.212;5.496;2022-07-06T09:01:28;102638.63;;;17.24;55.14
69630;BME280;56857;52.212;5.496;2022-07-06T09:03:55;102640.13;;;17.26;55.42
69630;BME280;56857;52.212;5.496;2022-07-06T09:06:24;102649.34;;;17.32;55.05
69630;BME280;56857;52.212;5.496;2022-07-06T09:08:53;102643.44;;;17.45;55.81
69630;BME280;56857;52.212;5.496;2022-07-06T09:11:21;102638.72;;;17.55;54.48
69630;BME280;56857;52.212;5.496;2022-07-06T09:13:46;102638.88;;;17.70;53.53
69630;BME280;56857;52.212;5.496;2022-07-06T09:16:13;102640.00;;;17.83;52.91
69630;BME280;56857;52.212;5.496;2022-07-06T09:18:39;102633.03;;;18.05;53.70
69630;BME280;56857;52.212;5.496;2022-07-06T09:21:05;102637.44;;;18.29;51.28
69630;BME280;56857;52.212;5.496;2022-07-06T09:23:31;102634.19;;;18.42;52.03
69630;BME280;56857;52.212;5.496;2022-07-06T09:25:57;102635.88;;;18.66;53.16
69630;BME280;56857;52.212;5.496;2022-07-06T09:28:23;102638.19;;;18.69;51.94
69630;BME280;56857;52.212;5.496;2022-07-06T09:30:48;102635.16;;;18.72;50.81
69630;BME280;56857;52.212;5.496;2022-07-06T09:33:17;102636.66;;;18.75;50.89
69630;BME280;56857;52.212;5.496;2022-07-06T09:35:43;102636.50;;;18.77;48.21
69630;BME280;56857;52.212;5.496;2022-07-06T09:38:09;102636.66;;;18.75;48.48
69630;BME280;56857;52.212;5.496;2022-07-06T09:40:37;102638.47;;;18.83;50.29
69630;BME280;56857;52.212;5.496;2022-07-06T09:43:13;102639.88;;;18.70;49.57
69630;BME280;56857;52.212;5.496;2022-07-06T09:45:41;102637.31;;;18.54;48.92
69630;BME280;56857;52.212;5.496;2022-07-06T09:48:13;102644.50;;;18.53;50.22
69630;BME280;56857;52.212;5.496;2022-07-06T09:50:40;102635.97;;;18.50;50.40
69630;BME280;56857;52.212;5.496;2022-07-06T09:53:06;102643.50;;;18.55;49.96
69630;BME280;56857;52.212;5.496;2022-07-06T09:55:32;102643.44;;;18.63;50.59
69630;BME280;56857;52.212;5.496;2022-07-06T09:57:57;102642.22;;;18.73;50.31
69630;BME280;56857;52.212;5.496;2022-07-06T10:00:23;102657.19;;;18.91;50.70
69630;BME280;56857;52.212;5.496;2022-07-06T10:02:49;102654.19;;;19.09;50.46
69630;BME280;56857;52.212;5.496;2022-07-06T10:05:16;102658.53;;;19.62;51.85
69630;BME280;56857;52.212;5.496;2022-07-06T10:07:44;102658.75;;;19.61;49.94
69630;BME280;56857;52.212;5.496;2022-07-06T10:10:10;102658.16;;;19.51;50.23
69630;BME280;56857;52.212;5.496;2022-07-06T10:12:36;102650.66;;;19.61;50.92
69630;BME280;56857;52.212;5.496;2022-07-06T10:15:03;102652.06;;;19.86;49.07
69630;BME280;56857;52.212;5.496;2022-07-06T10:17:29;102660.88;;;19.65;48.66
69630;BME280;56857;52.212;5.496;2022-07-06T10:19:56;102651.00;;;20.17;49.62
69630;BME280;56857;52.212;5.496;2022-07-06T10:22:22;102642.75;;;20.76;49.17
69630;BME280;56857;52.212;5.496;2022-07-06T10:24:49;102650.88;;;21.61;48.91
69630;BME280;56857;52.212;5.496;2022-07-06T10:27:14;102640.00;;;22.37;47.46
69630;BME280;56857;52.212;5.496;2022-07-06T10:29:40;102642.53;;;22.58;42.75
69630;BME280;56857;52.212;5.496;2022-07-06T10:32:06;102637.69;;;22.27;40.93
69630;BME280;56857;52.212;5.496;2022-07-06T10:34:33;102639.19;;;21.88;39.87
69630;BME280;56857;52.212;5.496;2022-07-06T10:36:58;102631.47;;;22.27;41.34
69630;BME280;56857;52.212;5.496;2022-07-06T10:39:34;102631.88;;;22.24;40.08
69630;BME280;56857;52.212;5.496;2022-07-06T10:42:00;102624.47;;;22.72;43.09
69630;BME280;56857;52.212;5.496;2022-07-06T10:44:26;102630.72;;;23.26;42.58
69630;BME280;56857;52.212;5.496;2022-07-06T10:46:54;102632.88;;;23.82;42.36
69630;BME280;56857;52.212;5.496;2022-07-06T10:49:21;102632.53;;;23.45;41.47
69630;BME280;56857;52.212;5.496;2022-07-06T10:51:47;102626.53;;;24.40;41.40
69630;BME280;56857;52.212;5.496;2022-07-06T10:54:14;102625.50;;;25.23;39.95
69630;BME280;56857;52.212;5.496;2022-07-06T10:56:44;102623.19;;;25.01;37.91
69630;BME280;56857;52.212;5.496;2022-07-06T10:59:12;102627.47;;;25.09;40.00
69630;BME280;56857;52.212;5.496;2022-07-06T11:01:38;102623.50;;;25.92;38.33
69630;BME280;56857;52.212;5.496;2022-07-06T11:06:31;102612.44;;;27.12;38.71
69630;BME280;56857;52.212;5.496;2022-07-06T11:09:05;102617.53;;;27.32;36.21
69630;BME280;56857;52.212;5.496;2022-07-06T11:14:00;102606.81;;;27.78;36.71
69630;BME280;56857;52.212;5.496;2022-07-06T11:16:27;102616.00;;;28.34;36.27
69630;BME280;56857;52.212;5.496;2022-07-06T11:19:07;102610.22;;;28.76;34.48
69630;BME280;56857;52.212;5.496;2022-07-06T11:24:01;102598.97;;;27.69;34.82
69630;BME280;56857;52.212;5.496;2022-07-06T11:26:30;102604.06;;;27.14;36.15
69630;BME280;56857;52.212;5.496;2022-07-06T11:28:55;102599.06;;;27.46;34.39
69630;BME280;56857;52.212;5.496;2022-07-06T11:31:23;102587.75;;;27.54;34.55
69630;BME280;56857;52.212;5.496;2022-07-06T11:33:48;102587.44;;;27.39;34.16
69630;BME280;56857;52.212;5.496;2022-07-06T11:36:22;102589.00;;;27.75;35.39
69630;BME280;56857;52.212;5.496;2022-07-06T11:38:49;102583.19;;;27.83;34.88
69630;BME280;56857;52.212;5.496;2022-07-06T11:41:16;102577.75;;;28.29;33.76
69630;BME280;56857;52.212;5.496;2022-07-06T11:43:44;102571.28;;;28.18;34.53
69630;BME280;56857;52.212;5.496;2022-07-06T11:48:58;102557.50;;;27.67;32.66
69630;BME280;56857;52.212;5.496;2022-07-06T11:51:26;102558.03;;;26.23;33.45
69630;BME280;56857;52.212;5.496;2022-07-06T11:53:55;102558.59;;;26.67;35.88
69630;BME280;56857;52.212;5.496;2022-07-06T11:56:21;102556.63;;;27.90;34.34
69630;BME280;56857;52.212;5.496;2022-07-06T11:58:48;102564.13;;;28.62;33.31
69630;BME280;56857;52.212;5.496;2022-07-06T12:01:14;102563.94;;;29.20;32.67
69630;BME280;56857;52.212;5.496;2022-07-06T12:03:39;102564.34;;;29.12;31.73
69630;BME280;56857;52.212;5.496;2022-07-06T12:06:06;102560.69;;;29.45;32.65
69630;BME280;56857;52.212;5.496;2022-07-06T12:08:48;102554.03;;;29.36;33.49
69630;BME280;56857;52.212;5.496;2022-07-06T12:11:28;102555.09;;;28.11;33.66
69630;BME280;56857;52.212;5.496;2022-07-06T12:13:56;102550.44;;;27.95;33.71
69630;BME280;56857;52.212;5.496;2022-07-06T12:16:21;102547.00;;;27.31;33.17
69630;BME280;56857;52.212;5.496;2022-07-06T12:18:53;102549.63;;;26.90;34.94
69630;BME280;56857;52.212;5.496;2022-07-06T12:21:19;102559.34;;;27.62;34.05
69630;BME280;56857;52.212;5.496;2022-07-06T12:23:47;102551.94;;;27.34;34.23
69630;BME280;56857;52.212;5.496;2022-07-06T12:26:14;102556.94;;;27.65;33.68
69630;BME280;56857;52.212;5.496;2022-07-06T12:28:41;102555.75;;;27.61;34.35
69630;BME280;56857;52.212;5.496;2022-07-06T12:31:07;102540.38;;;27.55;33.09
69630;BME280;56857;52.212;5.496;2022-07-06T12:33:33;102545.34;;;27.06;33.97
69630;BME280;56857;52.212;5.496;2022-07-06T12:36:14;102533.63;;;27.06;34.18
69630;BME280;56857;52.212;5.496;2022-07-06T12:38:44;102542.25;;;27.14;32.92
69630;BME280;56857;52.212;5.496;2022-07-06T12:41:10;102534.59;;;26.10;33.98
69630;BME280;56857;52.212;5.496;2022-07-06T12:43:40;102530.91;;;25.56;35.15
69630;BME280;56857;52.212;5.496;2022-07-06T12:47:01;102533.53;;;25.33;35.61
69630;BME280;56857;52.212;5.496;2022-07-06T12:49:23;102538.38;;;25.79;37.58
69630;BME280;56857;52.212;5.496;2022-07-06T12:52:12;102525.97;;;26.55;37.03
69630;BME280;56857;52.212;5.496;2022-07-06T12:54:43;102533.75;;;26.52;35.01
69630;BME280;56857;52.212;5.496;2022-07-06T12:57:11;102532.56;;;26.06;34.45